createdAt,value
2023-03-14T00:00:24.996Z,50.76
2023-03-14T00:03:13.790Z,51.13
2023-03-14T00:05:43.941Z,51.29
2023-03-14T00:08:12.775Z,50.96
2023-03-14T00:10:41.660Z,50.92
2023-03-14T00:13:11.475Z,50.90
2023-03-14T00:15:40.209Z,51.01
2023-03-14T00:18:11.415Z,50.56
2023-03-14T00:20:40.188Z,51.17
2023-03-14T00:23:12.557Z,51.43
2023-03-14T00:25:43.537Z,51.62
2023-03-14T00:28:15.432Z,51.17
2023-03-14T00:30:44.010Z,51.01
2023-03-14T00:33:12.716Z,51.31
2023-03-14T00:35:43.605Z,51.27
2023-03-14T00:38:12.384Z,51.25
2023-03-14T00:40:44.100Z,52.21
2023-03-14T00:43:12.679Z,52.15
2023-03-14T00:45:41.282Z,51.67
2023-03-14T00:48:09.900Z,51.85
2023-03-14T00:50:39.985Z,52.12
2023-03-14T00:53:09.511Z,51.70
2023-03-14T00:55:39.809Z,52.80
2023-03-14T00:58:08.488Z,52.35
2023-03-14T01:00:38.173Z,52.28
2023-03-14T01:03:07.672Z,52.18
2023-03-14T01:05:36.494Z,52.77
2023-03-14T01:08:06.171Z,52.71
2023-03-14T01:10:41.236Z,53.00
2023-03-14T01:13:10.579Z,53.61
2023-03-14T01:15:40.158Z,52.95
2023-03-14T01:18:08.850Z,53.66
2023-03-14T01:20:38.760Z,52.94
2023-03-14T01:23:07.445Z,53.10
2023-03-14T01:25:42.007Z,53.70
2023-03-14T01:28:14.171Z,53.85
2023-03-14T01:30:43.307Z,53.33
2023-03-14T01:33:16.183Z,53.53
2023-03-14T01:35:46.030Z,53.51
2023-03-14T01:38:14.963Z,53.41
2023-03-14T01:40:48.050Z,54.07
2023-03-14T01:46:53.687Z,54.75
2023-03-14T01:49:35.309Z,54.80
2023-03-14T01:55:43.866Z,55.22
2023-03-14T01:58:12.426Z,55.78
2023-03-14T02:00:41.189Z,55.83
2023-03-14T02:03:40.756Z,55.52
2023-03-14T02:06:12.255Z,55.09
2023-03-14T02:08:45.189Z,55.16
2023-03-14T02:11:34.677Z,54.52
2023-03-14T02:14:41.968Z,55.15
2023-03-14T02:17:39.440Z,54.38
2023-03-14T02:21:14.884Z,54.75
2023-03-14T02:24:27.478Z,54.26
2023-03-14T02:27:23.266Z,54.92
2023-03-14T02:30:07.061Z,54.70
2023-03-14T02:32:39.049Z,55.18
2023-03-14T02:35:15.526Z,55.45
2023-03-14T02:38:41.183Z,54.79
2023-03-14T02:41:09.871Z,54.93
2023-03-14T02:43:42.202Z,55.62
2023-03-14T02:46:15.404Z,55.26
2023-03-14T02:49:25.095Z,55.20
2023-03-14T02:51:56.003Z,55.42
2023-03-14T02:54:24.639Z,55.29
2023-03-14T02:56:54.489Z,54.81
2023-03-14T02:59:22.995Z,55.55
2023-03-14T03:01:55.644Z,55.71
2023-03-14T03:04:24.472Z,56.11
2023-03-14T03:06:53.116Z,55.97
2023-03-14T03:09:21.745Z,55.79
2023-03-14T03:11:50.522Z,56.39
2023-03-14T03:14:23.560Z,56.72
2023-03-14T03:16:52.514Z,56.59
2023-03-14T03:19:22.104Z,56.45
2023-03-14T03:21:50.837Z,56.50
2023-03-14T03:24:19.539Z,57.19
2023-03-14T03:26:48.814Z,56.07
2023-03-14T03:29:17.539Z,56.19
2023-03-14T03:31:47.600Z,56.80
2023-03-14T03:34:16.555Z,56.66
2023-03-14T03:36:45.340Z,56.75
2023-03-14T03:39:14.177Z,56.97
2023-03-14T03:41:42.979Z,57.11
2023-03-14T03:44:13.733Z,56.60
2023-03-14T03:46:42.629Z,56.97
2023-03-14T03:49:11.492Z,57.15
2023-03-14T03:51:41.778Z,57.19
2023-03-14T03:54:11.472Z,56.89
2023-03-14T03:56:44.101Z,56.85
2023-03-14T03:59:12.911Z,56.96
2023-03-14T04:01:42.015Z,57.15
2023-03-14T04:04:11.401Z,56.84
2023-03-14T04:06:42.965Z,57.26
2023-03-14T04:09:13.194Z,57.60
2023-03-14T04:11:48.453Z,56.79
2023-03-14T04:14:24.945Z,56.92
2023-03-14T04:17:23.356Z,56.98
2023-03-14T04:19:55.774Z,57.09
2023-03-14T04:22:31.485Z,57.28
2023-03-14T04:25:04.575Z,57.06
2023-03-14T04:27:37.919Z,57.41
2023-03-14T04:30:14.771Z,57.91
2023-03-14T04:33:21.952Z,57.53
2023-03-14T04:35:56.259Z,58.02
2023-03-14T04:38:25.278Z,57.87
2023-03-14T04:40:54.533Z,58.00
2023-03-14T04:43:26.971Z,57.77
2023-03-14T04:46:01.986Z,57.73
2023-03-14T04:48:33.278Z,58.03
2023-03-14T04:51:02.955Z,57.83
2023-03-14T04:53:38.314Z,58.03
2023-03-14T04:56:13.393Z,57.77
2023-03-14T04:58:45.728Z,57.80
2023-03-14T05:01:17.482Z,58.60
2023-03-14T05:04:05.262Z,59.26
2023-03-14T05:07:13.896Z,58.59
2023-03-14T05:10:02.168Z,58.44
2023-03-14T05:12:53.689Z,58.84
2023-03-14T05:15:41.400Z,59.17
2023-03-14T05:18:24.403Z,58.48
2023-03-14T05:21:14.373Z,58.45
2023-03-14T05:24:18.259Z,58.37
2023-03-14T05:27:02.317Z,58.07
2023-03-14T05:29:57.070Z,57.84
2023-03-14T05:32:26.910Z,57.30
2023-03-14T05:35:14.516Z,57.72
2023-03-14T05:38:04.512Z,57.67
2023-03-14T05:40:54.574Z,56.70
2023-03-14T05:43:35.357Z,56.21
2023-03-14T05:46:10.326Z,56.19
2023-03-14T05:49:02.440Z,55.73
2023-03-14T05:51:57.028Z,55.54
2023-03-14T05:54:46.516Z,55.07
2023-03-14T05:57:32.043Z,54.35
2023-03-14T06:00:23.131Z,53.94
2023-03-14T06:02:57.955Z,54.34
2023-03-14T06:05:29.868Z,54.12
2023-03-14T06:08:05.061Z,53.75
2023-03-14T06:10:39.087Z,53.14
2023-03-14T06:13:08.107Z,53.02
2023-03-14T06:15:37.218Z,53.02
2023-03-14T06:18:06.118Z,53.14
2023-03-14T06:20:40.238Z,53.08
2023-03-14T06:23:10.535Z,53.28
2023-03-14T06:25:39.825Z,52.47
2023-03-14T06:28:08.576Z,51.56
2023-03-14T06:30:38.171Z,52.17
2023-03-14T06:33:07.994Z,52.21
2023-03-14T06:35:39.116Z,52.14
2023-03-14T06:38:07.887Z,52.04
2023-03-14T06:40:39.151Z,51.55
2023-03-14T06:43:34.068Z,51.38
2023-03-14T06:46:02.712Z,51.17
2023-03-14T06:48:33.290Z,50.31
2023-03-14T06:51:03.012Z,50.26
2023-03-14T06:53:31.930Z,49.99
2023-03-14T06:56:01.380Z,48.69
2023-03-14T06:58:30.921Z,48.83
2023-03-14T07:01:00.208Z,48.21
2023-03-14T07:03:34.296Z,48.10
2023-03-14T07:06:05.326Z,48.04
2023-03-14T07:08:41.636Z,47.37
2023-03-14T07:11:12.265Z,47.25
2023-03-14T07:13:41.158Z,46.50
2023-03-14T07:16:12.889Z,45.78
2023-03-14T07:18:44.863Z,43.99
2023-03-14T07:21:15.704Z,44.04
2023-03-14T07:23:44.416Z,43.11
2023-03-14T07:26:13.969Z,42.64
2023-03-14T07:28:47.461Z,42.50
2023-03-14T07:31:18.734Z,42.80
2023-03-14T07:33:49.680Z,42.18
2023-03-14T07:36:18.846Z,40.99
2023-03-14T07:38:48.027Z,40.74
2023-03-14T07:41:37.542Z,40.38
2023-03-14T07:44:29.812Z,39.75
2023-03-14T07:46:58.421Z,38.24
2023-03-14T07:49:28.312Z,37.84
2023-03-14T07:51:56.832Z,38.13
2023-03-14T07:54:26.085Z,37.94
2023-03-14T07:56:54.598Z,37.06
2023-03-14T07:59:23.192Z,37.52
2023-03-14T08:01:51.615Z,37.03
2023-03-14T08:04:20.074Z,36.45
2023-03-14T08:06:48.635Z,34.17
2023-03-14T08:09:17.167Z,35.29
2023-03-14T08:11:45.690Z,34.86
2023-03-14T08:14:14.561Z,34.84
2023-03-14T08:16:43.109Z,34.25
2023-03-14T08:19:11.726Z,32.80
2023-03-14T08:21:40.974Z,32.98
2023-03-14T08:24:11.441Z,32.26
2023-03-14T08:26:40.169Z,32.53
2023-03-14T08:29:09.338Z,32.94
2023-03-14T08:31:37.943Z,32.53
2023-03-14T08:34:07.982Z,32.20
2023-03-14T08:36:36.906Z,32.74
2023-03-14T08:39:08.441Z,32.09
2023-03-14T08:41:42.345Z,31.81
2023-03-14T08:44:12.802Z,32.23
2023-03-14T08:46:42.183Z,32.21
2023-03-14T08:49:10.787Z,32.66
2023-03-14T08:51:39.468Z,32.45
2023-03-14T08:54:11.888Z,32.44
2023-03-14T08:56:40.553Z,32.71
2023-03-14T08:59:09.562Z,33.26
2023-03-14T09:01:38.432Z,33.23
2023-03-14T09:04:08.031Z,33.30
2023-03-14T09:06:36.902Z,32.88
2023-03-14T09:09:06.152Z,32.55
2023-03-14T09:11:34.704Z,32.25
2023-03-14T09:14:06.994Z,32.83
2023-03-14T09:16:35.954Z,32.74
2023-03-14T09:19:04.894Z,32.95
2023-03-14T09:21:33.736Z,32.88
2023-03-14T09:24:04.433Z,32.79
2023-03-14T09:26:33.053Z,32.32
2023-03-14T09:29:01.661Z,31.89
2023-03-14T09:31:30.845Z,31.51
2023-03-14T09:33:59.549Z,31.57
2023-03-14T09:36:28.178Z,31.17
2023-03-14T09:38:56.686Z,30.85
2023-03-14T09:41:36.001Z,31.44
2023-03-14T09:44:10.549Z,31.29
2023-03-14T09:46:41.155Z,32.01
2023-03-14T09:49:23.232Z,32.05
2023-03-14T09:51:55.708Z,32.06
2023-03-14T09:54:38.571Z,32.51
2023-03-14T09:57:24.812Z,32.90
2023-03-14T09:59:58.963Z,32.97
2023-03-14T10:02:37.456Z,33.19
2023-03-14T10:05:27.875Z,32.14
2023-03-14T10:07:56.890Z,31.17
2023-03-14T10:10:27.507Z,31.15
2023-03-14T10:13:37.909Z,31.54
2023-03-14T10:16:09.735Z,30.23
2023-03-14T10:18:38.200Z,29.35
2023-03-14T10:21:26.711Z,28.77
2023-03-14T10:23:56.031Z,28.19
2023-03-14T10:26:29.228Z,29.37
2023-03-14T10:29:44.499Z,29.49
2023-03-14T10:32:23.772Z,29.24
2023-03-14T10:35:14.771Z,27.94
2023-03-14T10:37:58.924Z,26.71
2023-03-14T10:40:31.789Z,26.82
2023-03-14T10:43:04.950Z,26.28
2023-03-14T10:45:44.861Z,25.37
2023-03-14T10:48:34.338Z,24.43
2023-03-14T10:51:08.574Z,25.30
2023-03-14T10:53:42.927Z,25.03
2023-03-14T10:56:16.446Z,23.09
2023-03-14T10:58:47.461Z,24.10
2023-03-14T11:01:43.131Z,23.13
2023-03-14T11:04:33.498Z,22.20
2023-03-14T11:07:18.076Z,21.94
2023-03-14T11:10:02.648Z,21.79
2023-03-14T11:12:56.433Z,21.46
2023-03-14T11:15:54.747Z,21.29
2023-03-14T11:18:35.435Z,20.47
2023-03-14T11:21:10.637Z,20.51
2023-03-14T11:23:57.659Z,20.86
2023-03-14T11:26:44.688Z,22.10
2023-03-14T11:29:22.629Z,21.17
2023-03-14T11:31:54.863Z,21.02
2023-03-14T11:34:51.064Z,20.04
2023-03-14T11:37:36.325Z,19.43
2023-03-14T11:40:28.980Z,19.47
2023-03-14T11:43:39.954Z,19.28
2023-03-14T11:46:41.018Z,19.50
2023-03-14T11:49:23.351Z,20.05
2023-03-14T11:52:02.322Z,20.13
2023-03-14T11:54:51.972Z,20.20
2023-03-14T11:57:21.889Z,20.60
2023-03-14T12:00:00.918Z,20.79
2023-03-14T12:02:42.491Z,21.13
2023-03-14T12:05:49.964Z,21.96
2023-03-14T12:08:36.863Z,22.95
2023-03-14T12:11:17.545Z,23.49
2023-03-14T12:13:52.372Z,23.72
2023-03-14T12:16:25.609Z,23.86
2023-03-14T12:18:55.107Z,23.79
2023-03-14T12:21:25.883Z,23.48
2023-03-14T12:23:57.521Z,22.93
2023-03-14T12:26:30.294Z,22.74
2023-03-14T12:28:58.779Z,22.67
2023-03-14T12:31:51.427Z,22.16
2023-03-14T12:34:19.921Z,22.01
2023-03-14T12:36:51.423Z,21.94
2023-03-14T12:39:34.799Z,21.36
2023-03-14T12:42:06.752Z,21.22
2023-03-14T12:44:44.405Z,21.68
2023-03-14T12:47:21.835Z,21.26
2023-03-14T12:49:52.070Z,20.53
2023-03-14T12:52:47.275Z,20.62
2023-03-14T12:55:56.369Z,20.41
2023-03-14T12:58:38.861Z,20.48
2023-03-14T13:01:45.664Z,20.73
2023-03-14T13:04:14.869Z,19.72
2023-03-14T13:06:49.492Z,20.06
2023-03-14T13:09:34.776Z,20.19
2023-03-14T13:12:04.431Z,20.02
2023-03-14T13:14:33.264Z,20.22
2023-03-14T13:17:19.369Z,20.06
2023-03-14T13:20:14.400Z,20.16
2023-03-14T13:22:48.423Z,19.58
2023-03-14T13:25:18.139Z,20.13
2023-03-14T13:27:46.780Z,19.85
2023-03-14T13:30:59.344Z,19.76
2023-03-14T13:33:28.486Z,19.81
2023-03-14T13:36:05.901Z,19.72
2023-03-14T13:38:37.481Z,20.15
2023-03-14T13:41:08.606Z,19.67
2023-03-14T13:43:43.192Z,19.70
2023-03-14T13:46:55.259Z,19.60
2023-03-14T13:49:26.353Z,19.96
2023-03-14T13:51:54.914Z,19.67
2023-03-14T13:54:24.243Z,19.24
2023-03-14T13:57:30.895Z,19.11
2023-03-14T14:00:02.093Z,19.29
2023-03-14T14:02:34.971Z,19.33
2023-03-14T14:05:04.586Z,19.44
2023-03-14T14:07:33.235Z,19.43
2023-03-14T14:10:02.684Z,19.57
2023-03-14T14:13:16.274Z,20.11
2023-03-14T14:15:48.371Z,20.20
2023-03-14T14:18:22.270Z,19.74
2023-03-14T14:20:51.342Z,19.53
2023-03-14T14:23:32.810Z,19.74
2023-03-14T14:26:01.380Z,19.80
2023-03-14T14:28:33.024Z,19.75
2023-03-14T14:31:14.958Z,19.50
2023-03-14T14:34:27.116Z,19.42
2023-03-14T14:36:55.670Z,19.60
2023-03-14T14:39:30.135Z,19.99
2023-03-14T14:41:59.712Z,20.03
2023-03-14T14:44:35.963Z,20.13
2023-03-14T14:47:05.370Z,20.04
2023-03-14T14:49:34.942Z,19.96
2023-03-14T14:52:10.762Z,19.98
2023-03-14T14:54:44.672Z,20.06
2023-03-14T14:57:21.720Z,19.95
2023-03-14T14:59:53.636Z,20.39
2023-03-14T15:02:31.445Z,20.91
2023-03-14T15:05:00.768Z,21.22
2023-03-14T15:07:29.246Z,21.59
2023-03-14T15:09:57.798Z,21.82
2023-03-14T15:12:26.219Z,22.20
2023-03-14T15:14:58.383Z,22.55
2023-03-14T15:17:26.833Z,22.85
2023-03-14T15:19:56.616Z,23.23
2023-03-14T15:22:25.398Z,23.48
2023-03-14T15:24:53.842Z,23.86
2023-03-14T15:27:22.310Z,24.18
2023-03-14T15:29:51.059Z,24.24
2023-03-14T15:32:19.757Z,24.48
2023-03-14T15:34:48.315Z,24.88
2023-03-14T15:37:18.147Z,25.29
2023-03-14T15:39:47.025Z,25.66
2023-03-14T15:42:15.490Z,26.04
2023-03-14T15:44:43.862Z,26.38
2023-03-14T15:47:12.404Z,26.62
2023-03-14T15:49:40.775Z,27.12
2023-03-14T15:52:10.294Z,27.30
2023-03-14T15:54:38.669Z,27.71
2023-03-14T15:57:07.712Z,27.86
2023-03-14T15:59:36.589Z,27.83
2023-03-14T16:02:05.098Z,28.17
2023-03-14T16:04:33.536Z,28.30
2023-03-14T16:07:01.872Z,28.19
2023-03-14T16:09:30.236Z,28.33
2023-03-14T16:11:58.645Z,28.51
2023-03-14T16:14:27.008Z,28.61
2023-03-14T16:16:56.074Z,28.75
2023-03-14T16:19:32.012Z,29.02
2023-03-14T16:22:00.459Z,28.94
2023-03-14T16:24:29.225Z,28.75
2023-03-14T16:26:57.569Z,28.80
2023-03-14T16:29:25.896Z,28.72
2023-03-14T16:31:54.280Z,28.81
2023-03-14T16:34:22.742Z,28.86
2023-03-14T16:36:54.266Z,28.97
2023-03-14T16:39:22.869Z,28.98
2023-03-14T16:41:57.261Z,28.99
2023-03-14T16:44:27.534Z,29.08
2023-03-14T16:46:55.809Z,29.02
2023-03-14T16:49:24.320Z,28.63
2023-03-14T16:51:52.842Z,28.72
2023-03-14T16:54:21.123Z,28.64
2023-03-14T16:56:49.754Z,28.40
2023-03-14T16:59:18.058Z,28.19
2023-03-14T17:01:46.730Z,27.91
2023-03-14T17:04:15.115Z,27.77
2023-03-14T17:06:45.554Z,27.50
2023-03-14T17:09:13.968Z,27.47
2023-03-14T17:11:42.391Z,27.60
2023-03-14T17:14:10.883Z,27.44
2023-03-14T17:16:39.331Z,27.23
2023-03-14T17:19:07.888Z,27.29
2023-03-14T17:21:36.362Z,27.34
2023-03-14T17:24:04.935Z,27.30
2023-03-14T17:26:33.341Z,27.47
2023-03-14T17:29:01.762Z,27.42
2023-03-14T17:31:30.196Z,27.57
2023-03-14T17:33:58.581Z,27.90
2023-03-14T17:36:30.639Z,27.98
2023-03-14T17:38:58.993Z,28.20
2023-03-14T17:41:27.456Z,28.53
2023-03-14T17:43:57.340Z,28.58
2023-03-14T17:46:26.910Z,28.92
2023-03-14T17:48:55.263Z,29.13
2023-03-14T17:51:23.799Z,29.42
2023-03-14T17:53:52.197Z,29.59
2023-03-14T17:56:20.673Z,29.85
2023-03-14T17:58:49.028Z,29.84
2023-03-14T18:01:19.590Z,29.98
2023-03-14T18:03:48.305Z,30.03
2023-03-14T18:06:17.802Z,30.15
2023-03-14T18:08:47.481Z,30.20
2023-03-14T18:11:17.099Z,30.22
2023-03-14T18:13:45.736Z,30.00
2023-03-14T18:16:14.793Z,30.09
2023-03-14T18:18:47.808Z,30.03
2023-03-14T18:21:18.466Z,30.02
2023-03-14T18:23:48.636Z,30.15
2023-03-14T18:26:17.489Z,29.92
2023-03-14T18:28:47.196Z,29.88
2023-03-14T18:31:18.273Z,29.92
2023-03-14T18:33:48.119Z,29.88
2023-03-14T18:36:17.258Z,29.85
2023-03-14T18:38:46.353Z,29.68
2023-03-14T18:41:17.350Z,29.33
2023-03-14T18:43:46.184Z,29.35
2023-03-14T18:46:15.729Z,29.32
2023-03-14T18:48:44.132Z,29.33
2023-03-14T18:51:18.365Z,29.18
2023-03-14T18:53:48.573Z,28.92
2023-03-14T18:56:18.925Z,28.71
2023-03-14T18:58:47.370Z,28.53
2023-03-14T19:01:17.786Z,28.46
2023-03-14T19:03:48.438Z,28.13
2023-03-14T19:06:17.593Z,28.03
2023-03-14T19:08:46.954Z,28.02
2023-03-14T19:11:15.576Z,27.48
2023-03-14T19:13:44.554Z,27.35
2023-03-14T19:16:14.804Z,27.27
2023-03-14T19:18:43.708Z,27.15
2023-03-14T19:21:14.456Z,26.97
2023-03-14T19:23:46.609Z,27.00
2023-03-14T19:26:16.390Z,26.98
2023-03-14T19:28:44.832Z,27.19
2023-03-14T19:31:13.508Z,27.22
2023-03-14T19:33:42.641Z,27.33
2023-03-14T19:36:22.713Z,27.41
2023-03-14T19:38:52.701Z,27.40
2023-03-14T19:41:23.367Z,27.70
2023-03-14T19:43:52.294Z,27.70
2023-03-14T19:46:21.936Z,27.79
2023-03-14T19:48:54.457Z,27.79
2023-03-14T19:51:23.354Z,27.55
2023-03-14T19:53:52.903Z,27.58
2023-03-14T19:56:24.141Z,27.25
2023-03-14T19:58:53.465Z,27.01
2023-03-14T20:01:22.161Z,26.37
2023-03-14T20:03:50.589Z,26.33
2023-03-14T20:06:18.997Z,26.64
2023-03-14T20:08:47.644Z,26.98
2023-03-14T20:11:16.087Z,27.06
2023-03-14T20:13:44.773Z,26.97
2023-03-14T20:16:13.597Z,27.15
2023-03-14T20:18:42.351Z,26.99
2023-03-14T20:21:15.578Z,26.84
2023-03-14T20:23:44.522Z,26.92
2023-03-14T20:26:12.855Z,26.90
2023-03-14T20:28:42.848Z,26.96
2023-03-14T20:31:11.298Z,27.35
2023-03-14T20:33:39.712Z,27.94
2023-03-14T20:36:08.991Z,28.81
2023-03-14T20:38:37.905Z,28.71
2023-03-14T20:41:07.754Z,29.43
2023-03-14T20:43:36.330Z,29.66
2023-03-14T20:46:05.675Z,29.70
2023-03-14T20:48:34.190Z,29.97
2023-03-14T20:51:02.929Z,30.14
2023-03-14T20:53:31.296Z,30.27
2023-03-14T20:55:59.694Z,30.26
2023-03-14T20:58:28.014Z,30.72
2023-03-14T21:00:57.423Z,30.61
2023-03-14T21:03:26.357Z,30.41
2023-03-14T21:05:55.105Z,30.43
2023-03-14T21:08:25.243Z,30.59
2023-03-14T21:10:55.577Z,30.93
2023-03-14T21:13:24.718Z,31.12
2023-03-14T21:15:53.581Z,30.95
2023-03-14T21:18:23.425Z,31.20
2023-03-14T21:20:54.732Z,31.42
2023-03-14T21:23:26.737Z,31.47
2023-03-14T21:25:58.903Z,31.24
2023-03-14T21:28:27.409Z,31.22
2023-03-14T21:30:56.002Z,31.62
2023-03-14T21:33:24.612Z,31.78
2023-03-14T21:35:53.525Z,31.57
2023-03-14T21:38:21.949Z,31.68
2023-03-14T21:40:57.251Z,31.82
2023-03-14T21:43:26.273Z,31.88
2023-03-14T21:45:54.846Z,32.15
2023-03-14T21:48:23.276Z,32.67
2023-03-14T21:50:52.006Z,33.25
2023-03-14T21:53:20.717Z,33.98
2023-03-14T21:55:49.086Z,33.59
2023-03-14T21:58:17.444Z,33.81
2023-03-14T22:00:49.390Z,34.30
2023-03-14T22:03:25.275Z,34.60
2023-03-14T22:05:53.746Z,34.69
2023-03-14T22:08:22.895Z,34.86
2023-03-14T22:10:53.456Z,36.34
2023-03-14T22:13:24.445Z,35.71
2023-03-14T22:15:53.100Z,35.55
2023-03-14T22:18:21.507Z,35.27
2023-03-14T22:20:49.885Z,35.29
2023-03-14T22:23:18.241Z,35.71
2023-03-14T22:25:49.474Z,36.04
2023-03-14T22:28:18.959Z,36.84
2023-03-14T22:30:51.584Z,36.21
2023-03-14T22:33:20.581Z,36.75
2023-03-14T22:35:50.604Z,36.52
2023-03-14T22:38:19.423Z,36.67
2023-03-14T22:40:48.716Z,37.06
2023-03-14T22:43:17.189Z,36.78
2023-03-14T22:45:45.872Z,36.57
2023-03-14T22:48:15.368Z,37.25
2023-03-14T22:50:43.861Z,37.27
2023-03-14T22:53:12.308Z,37.49
2023-03-14T22:55:40.688Z,37.28
2023-03-14T22:58:10.114Z,37.37
2023-03-14T23:00:39.219Z,37.34
2023-03-14T23:03:07.712Z,37.73
2023-03-14T23:05:36.158Z,38.08
2023-03-14T23:08:04.504Z,38.64
2023-03-14T23:10:35.539Z,38.62
2023-03-14T23:13:05.806Z,38.58
2023-03-14T23:15:34.564Z,39.39
2023-03-14T23:18:02.994Z,40.95
2023-03-14T23:20:31.489Z,39.89
2023-03-14T23:22:59.872Z,39.47
2023-03-14T23:25:30.063Z,39.17
2023-03-14T23:28:00.006Z,39.96
2023-03-14T23:30:28.684Z,40.37
2023-03-14T23:32:57.082Z,40.81
2023-03-14T23:35:25.455Z,40.11
2023-03-14T23:37:53.803Z,40.03
2023-03-14T23:40:22.208Z,39.84
2023-03-14T23:42:50.540Z,40.16
2023-03-14T23:45:18.908Z,40.73
2023-03-14T23:47:47.223Z,40.29
2023-03-14T23:50:15.611Z,41.76
2023-03-14T23:52:44.163Z,41.84
2023-03-14T23:55:12.559Z,41.45
2023-03-14T23:57:41.608Z,41.35
